Time;durP1;ratioP1;P1;durP2;ratioP2;P2;SDS_P1;SDS_P2;PMS_P1;PMS_P2;Temp;Humidity;BMP_temperature;BMP_pressure;BME280_temperature;BME280_humidity;BME280_pressure;Samples;Min_cycle;Max_cycle;Signal;HPM_P1;HPM_P2
2023/10/29 00:02:18;;;;;;;6.70;1.87;;;14.20;97.80;;;;;;4998466;28;20022;-72
2023/10/29 00:04:44;;;;;;;3.73;1.40;;;14.10;97.80;;;;;;4997579;28;20071;-71
2023/10/29 00:07:10;;;;;;;2.85;1.58;;;14.10;98.30;;;;;;4999291;28;20030;-72
2023/10/29 00:09:35;;;;;;;5.43;1.37;;;14.20;98.50;;;;;;4993795;28;20530;-72
2023/10/29 00:12:01;;;;;;;6.23;1.87;;;14.10;99.70;;;;;;4997362;28;20026;-73
2023/10/29 00:14:27;;;;;;;10.27;1.93;;;14.10;99.90;;;;;;4998862;28;20038;-71
2023/10/29 00:16:52;;;;;;;5.13;1.30;;;14.00;99.90;;;;;;4996683;28;20091;-74
2023/10/29 00:19:18;;;;;;;4.33;1.20;;;13.90;99.90;;;;;;4997124;28;20033;-74
2023/10/29 00:21:44;;;;;;;4.20;1.42;;;13.90;99.90;;;;;;5001016;28;20037;-72
2023/10/29 00:24:09;;;;;;;12.07;3.70;;;13.80;99.90;;;;;;4998248;28;20038;-75
2023/10/29 00:26:35;;;;;;;8.33;1.33;;;13.80;99.90;;;;;;5003589;28;20420;-75
2023/10/29 00:29:01;;;;;;;7.33;1.40;;;13.70;99.90;;;;;;4997766;28;20049;-75
2023/10/29 00:31:26;;;;;;;5.40;1.50;;;13.70;99.90;;;;;;4997291;28;20069;-73
2023/10/29 00:33:53;;;;;;;5.22;1.55;;;13.60;99.90;;;;;;5005009;28;20037;-72
2023/10/29 00:36:18;;;;;;;4.78;1.52;;;13.60;99.90;;;;;;5002223;28;20041;-70
2023/10/29 00:38:44;;;;;;;5.20;1.70;;;13.70;99.90;;;;;;5003069;28;20395;-72
2023/10/29 00:41:10;;;;;;;8.37;1.70;;;13.70;99.90;;;;;;5001789;28;20128;-72
2023/10/29 00:43:42;;;;;;;4.93;1.90;;;13.70;99.90;;;;;;4997766;28;20485;-71
2023/10/29 00:46:10;;;;;;;2.47;1.23;;;13.90;99.90;;;;;;5004858;28;20489;-72
2023/10/29 00:48:37;;;;;;;5.57;1.23;;;13.90;99.90;;;;;;5003111;28;20066;-72
2023/10/29 00:51:03;;;;;;;3.85;1.23;;;14.20;99.90;;;;;;5003651;28;20030;-70
2023/10/29 00:53:29;;;;;;;12.45;1.70;;;14.20;99.90;;;;;;5006431;28;20080;-71
2023/10/29 00:55:55;;;;;;;2.72;1.15;;;14.30;99.90;;;;;;5001347;28;20489;-73
2023/10/29 00:58:24;;;;;;;4.03;1.67;;;14.30;99.20;;;;;;4998157;28;20510;-74
2023/10/29 01:00:50;;;;;;;3.22;1.27;;;14.30;99.90;;;;;;5001533;28;20681;-74
2023/10/29 01:03:18;;;;;;;9.63;1.67;;;14.50;99.20;;;;;;5001945;28;20034;-74
2023/10/29 01:05:44;;;;;;;5.22;0.93;;;14.50;99.90;;;;;;5000023;28;20125;-71
2023/10/29 01:08:10;;;;;;;4.90;2.42;;;14.50;99.10;;;;;;4997228;28;20102;-71
2023/10/29 01:10:36;;;;;;;3.53;1.23;;;14.40;99.50;;;;;;5002342;28;20088;-74
2023/10/29 01:13:02;;;;;;;3.23;1.00;;;14.40;99.90;;;;;;5012590;28;20030;-72
2023/10/29 01:15:27;;;;;;;4.47;1.53;;;14.20;99.90;;;;;;5003570;28;20904;-71
2023/10/29 01:17:53;;;;;;;1.67;0.97;;;14.30;99.90;;;;;;4999760;28;20058;-71
2023/10/29 01:20:18;;;;;;;7.27;1.30;;;14.50;99.00;;;;;;5003137;28;20117;-72
2023/10/29 01:22:44;;;;;;;4.47;1.10;;;14.50;99.40;;;;;;5014846;28;20433;-72
2023/10/29 01:25:11;;;;;;;4.57;1.48;;;14.40;99.90;;;;;;5002486;28;20033;-73
2023/10/29 01:27:37;;;;;;;3.80;1.13;;;14.30;99.90;;;;;;5003919;28;20497;-74
2023/10/29 01:30:05;;;;;;;3.38;1.25;;;14.60;99.20;;;;;;4999975;28;20489;-75
2023/10/29 01:32:32;;;;;;;3.72;1.00;;;14.60;99.30;;;;;;4999834;28;20037;-75
2023/10/29 01:34:57;;;;;;;2.55;1.00;;;14.80;97.90;;;;;;5002660;28;20021;-72
2023/10/29 01:37:23;;;;;;;3.17;1.00;;;14.70;99.30;;;;;;4998992;28;20758;-70
2023/10/29 01:39:49;;;;;;;3.20;1.20;;;14.60;99.90;;;;;;4996059;28;20308;-71
2023/10/29 01:42:15;;;;;;;5.93;1.40;;;14.70;99.90;;;;;;5003809;28;20033;-74
2023/10/29 01:44:40;;;;;;;6.50;1.70;;;14.70;99.50;;;;;;5002433;28;20042;-72
2023/10/29 01:47:06;;;;;;;6.40;1.40;;;14.60;99.90;;;;;;5000322;28;20280;-75
2023/10/29 01:49:33;;;;;;;17.13;1.53;;;14.80;99.20;;;;;;5004285;28;20026;-71
2023/10/29 01:51:59;;;;;;;3.33;1.20;;;14.80;99.90;;;;;;4994781;28;20026;-71
2023/10/29 01:54:24;;;;;;;4.43;1.10;;;14.90;98.40;;;;;;4998502;28;20141;-73
2023/10/29 01:56:50;;;;;;;3.37;1.10;;;14.90;98.40;;;;;;4998477;28;20026;-74
2023/10/29 01:59:15;;;;;;;9.97;1.43;;;14.80;98.10;;;;;;5002970;28;20485;-71
2023/10/29 02:01:42;;;;;;;8.03;1.30;;;14.80;99.40;;;;;;4994874;28;20031;-72
2023/10/29 02:04:09;;;;;;;2.95;1.10;;;14.70;99.30;;;;;;5002083;28;20026;-71
2023/10/29 02:06:38;;;;;;;4.95;1.15;;;14.60;99.90;;;;;;5003712;28;20026;-72
2023/10/29 02:09:05;;;;;;;5.70;0.98;;;14.80;99.20;;;;;;4997139;28;20108;-72
2023/10/29 02:11:30;;;;;;;2.58;0.98;;;14.80;99.50;;;;;;5003033;28;20030;-71
2023/10/29 02:13:56;;;;;;;4.70;0.80;;;15.10;97.70;;;;;;5003483;28;20482;-71
2023/10/29 02:16:23;;;;;;;3.42;1.00;;;15.00;98.00;;;;;;4998466;28;20040;-71
2023/10/29 02:18:49;;;;;;;;;;;15.20;96.60;;;;;;4997366;28;20498;-71
2023/10/29 02:21:14;;;;;;;6.03;1.10;;;15.10;97.50;;;;;;4998757;28;19920;-71
2023/10/29 02:23:40;;;;;;;3.40;1.07;;;15.20;97.10;;;;;;4998371;28;20034;-73
2023/10/29 02:26:06;;;;;;;3.90;1.03;;;15.00;97.60;;;;;;4996738;28;20332;-71
2023/10/29 02:28:32;;;;;;;3.22;1.75;;;14.90;98.20;;;;;;4997970;28;20847;-73
2023/10/29 02:30:57;;;;;;;4.90;1.00;;;15.00;98.00;;;;;;4997764;28;20112;-73
2023/10/29 02:33:23;;;;;;;6.67;1.17;;;15.00;97.80;;;;;;4994443;28;20042;-73
2023/10/29 02:35:49;;;;;;;7.47;1.97;;;14.90;98.10;;;;;;4997223;28;20266;-74
2023/10/29 02:38:16;;;;;;;2.90;1.30;;;15.10;97.00;;;;;;4999720;28;20029;-74
2023/10/29 02:40:42;;;;;;;4.38;1.20;;;15.20;96.80;;;;;;4999951;28;20521;-71
2023/10/29 02:43:08;;;;;;;2.03;0.80;;;15.40;96.80;;;;;;4997807;28;20022;-72
2023/10/29 02:45:34;;;;;;;5.17;1.13;;;15.20;97.00;;;;;;4999469;28;20029;-72
2023/10/29 02:47:59;;;;;;;3.90;1.13;;;15.30;96.30;;;;;;5000452;28;20292;-70
2023/10/29 02:50:25;;;;;;;7.77;1.23;;;15.40;95.20;;;;;;4999875;28;20038;-71
2023/10/29 02:52:51;;;;;;;7.93;1.90;;;15.50;94.90;;;;;;5004521;28;20037;-71
2023/10/29 02:55:16;;;;;;;2.50;0.90;;;15.80;94.10;;;;;;5000383;28;20251;-74
2023/10/29 02:57:42;;;;;;;3.93;2.07;;;15.90;93.50;;;;;;4999753;28;20049;-72
2023/10/29 03:00:08;;;;;;;2.43;0.73;;;16.00;93.10;;;;;;4999859;28;20049;-71
2023/10/29 03:02:33;;;;;;;2.72;1.33;;;16.00;93.00;;;;;;4999993;28;20393;-73
2023/10/29 03:04:59;;;;;;;1.93;0.87;;;16.00;92.80;;;;;;4996282;28;20031;-73
2023/10/29 03:07:25;;;;;;;4.90;0.73;;;15.90;92.60;;;;;;5015880;28;20566;-71
2023/10/29 03:09:50;;;;;;;2.70;0.90;;;16.00;92.80;;;;;;4997452;28;20022;-72
2023/10/29 03:12:16;;;;;;;6.30;1.20;;;15.90;94.00;;;;;;5000768;28;20040;-71
2023/10/29 03:14:41;;;;;;;5.47;1.10;;;16.00;93.20;;;;;;4999081;28;20108;-71
2023/10/29 03:17:07;;;;;;;2.03;0.70;;;15.80;94.10;;;;;;4996321;28;20497;-70
2023/10/29 03:19:32;;;;;;;5.03;1.00;;;16.10;92.40;;;;;;4993981;28;20074;-72
2023/10/29 03:21:58;;;;;;;5.40;1.10;;;15.80;94.30;;;;;;4994941;28;20022;-71
2023/10/29 03:24:24;;;;;;;2.13;1.00;;;15.80;93.30;;;;;;4991615;28;20052;-71
2023/10/29 03:26:50;;;;;;;6.13;1.05;;;16.00;93.00;;;;;;4998166;28;20036;-71
2023/10/29 03:29:15;;;;;;;7.60;0.90;;;15.90;93.50;;;;;;4998532;28;20030;-71
2023/10/29 03:31:41;;;;;;;3.33;1.00;;;16.00;92.30;;;;;;4991032;28;20041;-72
2023/10/29 03:34:07;;;;;;;5.10;1.07;;;15.80;92.90;;;;;;5000752;28;20092;-70
2023/10/29 03:36:33;;;;;;;5.45;0.75;;;15.80;93.30;;;;;;5004463;28;20065;-74
2023/10/29 03:38:59;;;;;;;5.80;1.10;;;15.60;94.50;;;;;;4990543;28;20114;-72
2023/10/29 03:41:24;;;;;;;1.93;0.97;;;15.80;93.50;;;;;;4995839;28;20030;-73
2023/10/29 03:43:50;;;;;;;4.43;1.00;;;15.80;93.10;;;;;;4996508;28;20430;-74
2023/10/29 03:46:16;;;;;;;6.77;0.93;;;15.80;93.00;;;;;;5000573;28;20033;-71
2023/10/29 03:48:44;;;;;;;4.80;1.15;;;15.90;92.90;;;;;;4999031;28;20800;-71
2023/10/29 03:51:14;;;;;;;2.20;0.80;;;15.90;92.60;;;;;;4997465;28;20098;-71
2023/10/29 03:53:40;;;;;;;7.32;0.77;;;15.80;93.10;;;;;;4998761;28;20054;-71
2023/10/29 03:56:06;;;;;;;2.55;0.70;;;16.00;92.60;;;;;;4997488;28;20489;-71
2023/10/29 03:58:32;;;;;;;4.53;0.93;;;16.20;91.20;;;;;;5000713;28;20139;-71
2023/10/29 04:00:58;;;;;;;3.25;1.38;;;16.20;91.80;;;;;;5001988;28;20113;-73
2023/10/29 04:03:23;;;;;;;3.77;0.90;;;16.20;91.80;;;;;;5004671;28;20045;-74
2023/10/29 04:05:49;;;;;;;2.07;0.80;;;16.20;91.50;;;;;;5001143;28;20281;-70
2023/10/29 04:08:16;;;;;;;3.00;0.67;;;16.10;91.80;;;;;;5004714;28;20402;-73
2023/10/29 04:10:42;;;;;;;5.32;0.85;;;16.20;92.20;;;;;;5005350;28;20136;-72
2023/10/29 04:13:08;;;;;;;4.53;0.70;;;16.00;92.80;;;;;;5000101;28;20179;-73
2023/10/29 04:15:33;;;;;;;10.20;1.27;;;16.20;91.70;;;;;;5004485;28;20514;-75
2023/10/29 04:17:59;;;;;;;3.90;1.00;;;16.20;91.30;;;;;;5007918;28;20033;-74
2023/10/29 04:20:24;;;;;;;3.87;0.60;;;16.10;91.80;;;;;;4999818;28;20116;-72
2023/10/29 04:22:50;;;;;;;4.60;1.00;;;16.20;91.70;;;;;;4998183;28;20478;-73
2023/10/29 04:25:15;;;;;;;2.07;0.67;;;16.00;91.80;;;;;;5003950;28;20037;-73
2023/10/29 04:27:41;;;;;;;1.90;0.60;;;16.10;91.60;;;;;;5002119;28;20018;-71
2023/10/29 04:30:07;;;;;;;5.20;0.87;;;16.00;91.70;;;;;;4997139;28;20485;-71
2023/10/29 04:32:32;;;;;;;3.35;0.95;;;16.10;91.40;;;;;;5004845;28;20076;-71
2023/10/29 04:34:58;;;;;;;11.43;1.27;;;16.00;92.10;;;;;;5002086;28;20060;-74
2023/10/29 04:37:24;;;;;;;7.67;0.90;;;16.30;92.10;;;;;;4994628;28;20033;-73
2023/10/29 04:39:50;;;;;;;2.43;0.90;;;16.20;91.50;;;;;;4996985;28;20108;-74
2023/10/29 04:42:16;;;;;;;3.65;0.63;;;16.00;91.70;;;;;;5000351;28;20042;-73
2023/10/29 04:44:42;;;;;;;6.47;0.90;;;16.00;91.50;;;;;;4998356;28;20033;-74
2023/10/29 04:47:08;;;;;;;3.42;0.80;;;16.00;92.20;;;;;;5006552;28;20029;-75
2023/10/29 04:49:33;;;;;;;2.47;0.83;;;15.80;92.90;;;;;;5002986;28;20053;-70
2023/10/29 04:51:59;;;;;;;3.90;0.90;;;15.60;93.50;;;;;;5000431;28;20168;-70
2023/10/29 04:54:24;;;;;;;1.43;0.70;;;15.70;92.50;;;;;;4997353;28;20506;-73
2023/10/29 04:56:50;;;;;;;8.77;1.00;;;15.60;93.70;;;;;;5000142;28;20509;-70
2023/10/29 04:59:16;;;;;;;4.60;0.60;;;15.60;93.40;;;;;;5000426;28;20037;-71
2023/10/29 05:01:41;;;;;;;3.27;0.70;;;15.70;93.40;;;;;;5002020;28;20034;-71
2023/10/29 05:04:07;;;;;;;1.70;0.70;;;15.80;93.50;;;;;;4993552;28;20037;-73
2023/10/29 05:06:33;;;;;;;3.83;0.82;;;15.90;92.60;;;;;;5002756;28;20156;-72
2023/10/29 05:08:58;;;;;;;2.53;0.60;;;16.00;91.60;;;;;;4997603;28;20117;-72
2023/10/29 05:11:24;;;;;;;3.93;0.70;;;15.80;92.80;;;;;;5001243;28;20163;-71
2023/10/29 05:13:50;;;;;;;6.40;1.23;;;15.60;93.40;;;;;;4997782;28;20030;-73
2023/10/29 05:16:16;;;;;;;2.77;1.00;;;15.50;94.20;;;;;;5001413;28;20061;-71
2023/10/29 05:18:42;;;;;;;7.43;1.27;;;15.60;93.70;;;;;;5007034;28;20026;-73
2023/10/29 05:21:07;;;;;;;5.00;1.17;;;15.50;93.90;;;;;;5004601;28;20050;-73
2023/10/29 05:23:34;;;;;;;2.23;0.80;;;16.00;91.60;;;;;;5001243;28;20108;-72
2023/10/29 05:26:00;;;;;;;9.18;1.30;;;16.00;92.50;;;;;;5000029;28;20053;-72
2023/10/29 05:28:26;;;;;;;0.77;0.60;;;15.90;92.00;;;;;;5002647;28;20128;-73
2023/10/29 05:30:52;;;;;;;;;;;15.70;93.10;;;;;;4998902;28;20037;-73
2023/10/29 05:33:18;;;;;;;3.30;1.05;;;15.80;92.80;;;;;;4999624;28;19935;-73
2023/10/29 05:35:44;;;;;;;4.65;0.95;;;16.00;92.00;;;;;;4999885;28;20141;-70
2023/10/29 05:38:10;;;;;;;4.60;0.90;;;15.80;92.60;;;;;;5004909;28;20555;-72
2023/10/29 05:40:35;;;;;;;4.77;0.90;;;15.80;93.50;;;;;;5014481;28;20053;-70
2023/10/29 05:43:01;;;;;;;3.80;0.90;;;15.80;92.00;;;;;;4996401;28;20014;-73
2023/10/29 05:45:28;;;;;;;3.05;0.73;;;15.90;91.90;;;;;;5001266;28;20033;-73
2023/10/29 05:47:55;;;;;;;;;;;16.00;92.30;;;;;;5001075;28;20429;-74
2023/10/29 05:50:21;;;;;;;6.18;0.80;;;15.90;93.20;;;;;;4997159;28;19985;-73
2023/10/29 05:52:48;;;;;;;1.57;0.70;;;16.20;91.00;;;;;;5001403;28;20050;-72
2023/10/29 05:55:13;;;;;;;5.20;0.85;;;16.20;91.60;;;;;;4998793;28;20513;-70
2023/10/29 05:57:39;;;;;;;5.53;0.83;;;16.20;91.70;;;;;;5000220;28;20336;-70
2023/10/29 06:00:06;;;;;;;3.97;0.70;;;16.30;90.80;;;;;;4998066;28;20030;-70
2023/10/29 06:02:31;;;;;;;3.55;0.80;;;16.40;90.70;;;;;;4995306;28;20029;-70
2023/10/29 06:04:57;;;;;;;5.20;1.27;;;16.30;90.40;;;;;;5002315;28;20037;-72
2023/10/29 06:07:22;;;;;;;1.40;0.67;;;16.10;91.40;;;;;;4999830;28;20033;-72
2023/10/29 06:09:48;;;;;;;5.20;1.27;;;15.90;92.40;;;;;;5002202;28;20736;-71
2023/10/29 06:12:14;;;;;;;2.43;0.70;;;15.90;92.20;;;;;;4995346;28;20785;-70
2023/10/29 06:14:40;;;;;;;2.40;0.70;;;15.70;92.80;;;;;;5001232;28;20049;-70
2023/10/29 06:17:06;;;;;;;5.75;1.00;;;15.80;93.90;;;;;;4998886;28;20060;-70
2023/10/29 06:19:33;;;;;;;3.80;0.70;;;15.80;93.10;;;;;;5001839;28;20022;-71
2023/10/29 06:21:59;;;;;;;2.15;0.75;;;15.80;93.00;;;;;;5002130;28;20523;-73
2023/10/29 06:24:24;;;;;;;3.10;1.00;;;15.80;93.40;;;;;;4999802;28;20042;-72
2023/10/29 06:26:50;;;;;;;5.73;1.00;;;15.70;93.40;;;;;;4999685;28;20049;-72
2023/10/29 06:29:16;;;;;;;6.18;1.00;;;15.90;93.00;;;;;;5001736;28;20082;-73
2023/10/29 06:31:41;;;;;;;3.63;0.97;;;15.90;93.00;;;;;;4994341;28;20034;-71
2023/10/29 06:34:08;;;;;;;3.30;0.80;;;16.30;91.70;;;;;;4998202;28;20034;-70
2023/10/29 06:36:33;;;;;;;;;;;16.10;92.40;;;;;;4997010;28;20045;-70
2023/10/29 06:39:00;;;;;;;2.67;0.80;;;16.00;92.60;;;;;;4998109;28;19909;-71
2023/10/29 06:41:25;;;;;;;7.97;1.35;;;15.90;93.60;;;;;;4997662;28;20040;-71
2023/10/29 06:43:51;;;;;;;5.27;0.80;;;15.90;93.60;;;;;;4995550;28;20030;-72
2023/10/29 06:46:16;;;;;;;6.60;1.00;;;16.10;92.90;;;;;;4994773;28;20104;-70
2023/10/29 06:48:42;;;;;;;1.80;0.77;;;16.10;93.40;;;;;;5000642;28;20424;-71
2023/10/29 06:51:11;;;;;;;3.47;1.07;;;16.00;93.00;;;;;;5000544;28;20041;-73
2023/10/29 06:53:37;;;;;;;3.38;1.00;;;16.10;92.90;;;;;;4998291;28;20390;-73
2023/10/29 06:56:04;;;;;;;4.95;0.95;;;15.90;93.50;;;;;;5002254;28;20109;-74
2023/10/29 06:58:30;;;;;;;2.72;0.90;;;16.00;93.60;;;;;;5003042;28;20395;-72
2023/10/29 07:01:02;;;;;;;4.70;1.05;;;16.00;92.80;;;;;;5001409;28;20561;-75
2023/10/29 07:03:27;;;;;;;5.10;0.90;;;16.10;92.50;;;;;;4999881;28;20034;-71
2023/10/29 07:05:53;;;;;;;4.73;1.47;;;16.20;93.50;;;;;;4998206;28;20418;-72
2023/10/29 07:08:19;;;;;;;2.97;0.80;;;16.20;93.10;;;;;;4994811;28;20116;-73
2023/10/29 07:10:46;;;;;;;2.80;0.95;;;16.30;92.60;;;;;;4997660;28;20425;-70
2023/10/29 07:13:13;;;;;;;6.85;1.15;;;16.40;92.50;;;;;;4993563;28;20092;-70
2023/10/29 07:15:40;;;;;;;2.77;0.70;;;16.40;93.10;;;;;;4999853;28;20034;-71
2023/10/29 07:18:06;;;;;;;4.25;1.17;;;16.40;92.30;;;;;;4995270;28;20575;-70
2023/10/29 07:20:31;;;;;;;6.47;1.00;;;16.50;92.50;;;;;;4995990;28;20041;-79
2023/10/29 07:22:57;;;;;;;5.27;1.20;;;16.40;93.10;;;;;;4995818;28;20060;-74
2023/10/29 07:25:23;;;;;;;3.23;0.90;;;16.40;93.30;;;;;;5000312;28;20064;-74
2023/10/29 07:27:48;;;;;;;5.60;1.63;;;16.50;94.60;;;;;;5000649;28;20088;-73
2023/10/29 07:30:14;;;;;;;3.40;0.83;;;16.60;93.80;;;;;;4995272;28;20368;-74
2023/10/29 07:32:40;;;;;;;3.97;1.10;;;16.80;93.60;;;;;;5000409;28;20030;-81
2023/10/29 07:35:06;;;;;;;3.70;1.20;;;17.10;91.60;;;;;;4996682;28;20876;-71
2023/10/29 07:37:31;;;;;;;8.95;1.40;;;17.60;90.20;;;;;;5000522;28;20288;-76
2023/10/29 07:39:57;;;;;;;7.03;1.03;;;17.60;91.50;;;;;;4993098;28;20405;-73
2023/10/29 07:42:24;;;;;;;7.37;1.13;;;17.70;90.80;;;;;;4999083;28;20277;-75
2023/10/29 07:44:50;;;;;;;3.67;1.42;;;18.00;89.60;;;;;;4994271;28;20030;-71
2023/10/29 07:47:16;;;;;;;4.28;1.42;;;18.10;90.10;;;;;;4995977;28;20172;-72
2023/10/29 07:49:42;;;;;;;6.03;1.30;;;18.10;89.70;;;;;;4992907;28;20069;-71
2023/10/29 07:52:08;;;;;;;4.05;0.95;;;18.10;88.20;;;;;;4998131;28;20022;-71
2023/10/29 07:54:33;;;;;;;4.23;0.87;;;18.20;87.60;;;;;;4994438;28;20705;-69
2023/10/29 07:57:00;;;;;;;6.20;1.27;;;18.00;88.00;;;;;;4997140;28;20026;-74
2023/10/29 07:59:25;;;;;;;4.00;1.00;;;18.00;90.20;;;;;;4994348;28;20217;-78
2023/10/29 08:01:51;;;;;;;6.13;1.20;;;17.90;88.00;;;;;;4995520;28;20065;-80
2023/10/29 08:04:17;;;;;;;2.63;1.00;;;17.70;90.80;;;;;;4999089;28;20504;-71
2023/10/29 08:06:43;;;;;;;5.60;0.80;;;17.70;89.50;;;;;;4997488;28;20108;-73
2023/10/29 08:09:09;;;;;;;3.22;0.70;;;17.60;89.20;;;;;;4996913;28;20657;-73
2023/10/29 08:11:35;;;;;;;3.90;1.00;;;17.80;88.10;;;;;;4996836;28;20091;-72
2023/10/29 08:14:01;;;;;;;3.70;0.95;;;17.80;88.80;;;;;;4998548;28;20053;-72
2023/10/29 08:16:27;;;;;;;3.58;0.75;;;17.60;88.10;;;;;;4998452;28;20030;-76
2023/10/29 08:18:53;;;;;;;2.37;0.90;;;17.60;89.20;;;;;;4995334;28;20361;-72
2023/10/29 08:21:19;;;;;;;4.43;1.15;;;17.50;89.80;;;;;;4998174;28;20046;-69
2023/10/29 08:23:45;;;;;;;5.87;1.57;;;17.60;88.30;;;;;;5000176;28;20044;-76
2023/10/29 08:26:11;;;;;;;2.83;0.90;;;17.60;90.10;;;;;;4997207;28;20507;-73
2023/10/29 08:28:37;;;;;;;8.93;1.20;;;17.70;88.70;;;;;;4996514;28;20792;-74
2023/10/29 08:31:02;;;;;;;5.07;1.03;;;17.50;91.60;;;;;;4999751;28;20026;-75
2023/10/29 08:33:28;;;;;;;9.27;1.00;;;17.40;92.00;;;;;;4997095;28;20034;-71
2023/10/29 08:35:54;;;;;;;5.93;1.20;;;17.40;93.00;;;;;;4123559;28;10000504;-76
2023/10/29 08:38:20;;;;;;;7.33;1.47;;;17.40;91.00;;;;;;4996035;28;20030;-76
2023/10/29 08:40:46;;;;;;;13.15;1.48;;;17.40;91.30;;;;;;4995964;28;20045;-74
2023/10/29 08:43:13;;;;;;;5.07;1.20;;;17.30;91.60;;;;;;4994114;28;20026;-71
2023/10/29 08:45:38;;;;;;;4.55;1.13;;;17.20;92.40;;;;;;4997888;28;20524;-74
2023/10/29 08:48:04;;;;;;;4.87;1.10;;;17.30;92.00;;;;;;5001112;28;20055;-77
2023/10/29 08:50:30;;;;;;;7.40;1.00;;;17.30;91.40;;;;;;5003569;28;20037;-72
2023/10/29 08:52:58;;;;;;;9.20;1.10;;;17.50;90.60;;;;;;5000662;28;20065;-74
2023/10/29 08:55:25;;;;;;;2.97;0.90;;;17.70;88.90;;;;;;5000574;28;20676;-75
2023/10/29 08:57:50;;;;;;;2.53;0.80;;;17.70;90.10;;;;;;5000875;28;20037;-72
2023/10/29 09:00:16;;;;;;;5.77;1.23;;;17.90;87.90;;;;;;4999936;28;20049;-72
2023/10/29 09:02:42;;;;;;;3.60;1.10;;;17.80;91.70;;;;;;5002698;28;20033;-70
2023/10/29 09:05:08;;;;;;;7.50;1.20;;;18.00;87.70;;;;;;4999995;28;20320;-71
2023/10/29 09:07:34;;;;;;;6.30;1.30;;;18.00;91.60;;;;;;5000775;28;20051;-71
2023/10/29 09:10:00;;;;;;;3.08;1.10;;;17.90;90.40;;;;;;5003136;28;20030;-71
2023/10/29 09:12:26;;;;;;;8.68;1.48;;;17.90;91.40;;;;;;4999675;28;20754;-71
2023/10/29 09:14:53;;;;;;;8.90;2.63;;;18.00;89.20;;;;;;4997979;28;20106;-72
2023/10/29 09:17:19;;;;;;;6.85;1.20;;;18.20;88.20;;;;;;4998564;28;20462;-74
2023/10/29 09:19:44;;;;;;;7.47;1.15;;;18.20;90.00;;;;;;4999618;28;20073;-77
2023/10/29 09:22:10;;;;;;;8.90;1.67;;;18.20;89.30;;;;;;4999826;28;20034;-72
2023/10/29 09:24:36;;;;;;;4.93;1.40;;;18.30;89.40;;;;;;4998628;28;20105;-75
2023/10/29 09:27:02;;;;;;;6.43;1.05;;;18.30;92.90;;;;;;4996640;28;20192;-72
2023/10/29 09:29:31;;;;;;;7.53;1.30;;;18.20;91.90;;;;;;4998964;28;20049;-76
2023/10/29 09:31:56;;;;;;;4.45;1.02;;;18.20;91.90;;;;;;4999939;28;20285;-72
2023/10/29 09:34:22;;;;;;;6.90;1.23;;;18.20;91.10;;;;;;5002423;28;20042;-73
2023/10/29 09:36:47;;;;;;;6.43;1.10;;;18.20;90.90;;;;;;5000267;28;20156;-76
2023/10/29 09:39:13;;;;;;;4.80;1.20;;;18.30;90.50;;;;;;4999285;28;20038;-74
2023/10/29 09:41:40;;;;;;;5.03;1.33;;;18.30;90.70;;;;;;4998063;28;20050;-74
2023/10/29 09:44:09;;;;;;;6.03;1.10;;;18.40;89.90;;;;;;5000543;28;20037;-73
2023/10/29 09:46:37;;;;;;;4.15;1.63;;;18.40;91.90;;;;;;4999840;28;20041;-70
2023/10/29 09:49:03;;;;;;;4.55;1.00;;;18.40;92.30;;;;;;5018613;28;20117;-71
2023/10/29 09:51:29;;;;;;;5.32;1.13;;;18.40;90.70;;;;;;4997102;28;20041;-71
2023/10/29 09:53:59;;;;;;;5.78;1.10;;;18.50;90.60;;;;;;5001780;28;20820;-70
2023/10/29 09:56:26;;;;;;;3.28;1.17;;;18.60;91.10;;;;;;4995173;28;20042;-71
2023/10/29 09:58:52;;;;;;;4.60;1.45;;;18.70;92.50;;;;;;4993335;28;20088;-77
2023/10/29 10:01:18;;;;;;;5.85;1.10;;;18.70;89.80;;;;;;4998801;28;20061;-71
2023/10/29 10:03:45;;;;;;;7.93;2.05;;;18.70;90.70;;;;;;4999963;28;20094;-75
2023/10/29 10:06:13;;;;;;;4.07;1.00;;;18.70;90.60;;;;;;4995282;28;20034;-75
2023/10/29 10:08:39;;;;;;;7.18;1.58;;;18.80;90.50;;;;;;4998479;28;20030;-72
2023/10/29 10:11:18;;;;;;;2.80;0.90;;;18.70;89.40;;;;;;4999635;28;20064;-73
2023/10/29 10:13:44;;;;;;;7.22;1.38;;;18.70;91.40;;;;;;4988305;28;20104;-70
2023/10/29 10:16:16;;;;;;;3.60;1.00;;;18.70;92.10;;;;;;5000891;28;20822;-74
2023/10/29 10:18:52;;;;;;;4.78;1.25;;;18.70;91.20;;;;;;4995360;28;20034;-73
2023/10/29 10:21:20;;;;;;;3.53;1.20;;;18.80;89.00;;;;;;5000526;28;20046;-71
2023/10/29 10:23:47;;;;;;;4.32;0.90;;;18.90;90.40;;;;;;4996746;28;20026;-70
2023/10/29 10:26:18;;;;;;;1.95;0.98;;;19.10;89.30;;;;;;4998203;28;20029;-74
2023/10/29 10:28:57;;;;;;;5.57;0.98;;;19.20;87.50;;;;;;4993691;28;20037;-75
2023/10/29 10:31:25;;;;;;;2.40;1.00;;;19.10;85.90;;;;;;4999449;28;20042;-71
2023/10/29 10:34:07;;;;;;;2.67;1.00;;;19.20;88.50;;;;;;4994832;28;20038;-74
2023/10/29 10:36:32;;;;;;;4.35;1.15;;;19.20;87.00;;;;;;5002469;28;20029;-76
2023/10/29 10:38:59;;;;;;;6.23;1.37;;;19.30;87.20;;;;;;4996255;28;20027;-70
2023/10/29 10:41:25;;;;;;;;;;;19.40;90.40;;;;;;4996917;28;20136;-73
2023/10/29 10:44:09;;;;;;;6.10;1.13;;;19.60;86.50;;;;;;4994119;28;20007;-74
2023/10/29 10:46:40;;;;;;;5.72;1.15;;;19.80;85.90;;;;;;4996584;28;20527;-77
2023/10/29 10:49:09;;;;;;;6.32;1.17;;;20.00;84.50;;;;;;5002562;28;20619;-73
2023/10/29 10:51:37;;;;;;;3.38;1.00;;;20.00;83.90;;;;;;4997063;28;20081;-75
2023/10/29 10:54:04;;;;;;;5.70;1.33;;;20.00;86.20;;;;;;4994201;28;20018;-72
2023/10/29 10:56:35;;;;;;;7.88;1.65;;;20.10;83.60;;;;;;4997737;28;20497;-78
2023/10/29 10:59:06;;;;;;;6.78;1.40;;;20.10;84.70;;;;;;4997212;28;20413;-74
2023/10/29 11:01:32;;;;;;;3.35;1.02;;;20.10;85.70;;;;;;4997662;28;20752;-74
2023/10/29 11:04:00;;;;;;;9.50;1.27;;;20.10;84.60;;;;;;4997239;28;20022;-79
2023/10/29 11:06:26;;;;;;;10.30;1.27;;;20.20;85.60;;;;;;4997583;28;20672;-77
2023/10/29 11:08:53;;;;;;;6.85;1.33;;;20.20;86.70;;;;;;4998686;28;20041;-72
2023/10/29 11:11:20;;;;;;;9.75;1.15;;;20.10;82.80;;;;;;4999183;28;20044;-74
2023/10/29 11:13:46;;;;;;;5.50;1.50;;;20.00;86.30;;;;;;4998113;28;20720;-73
2023/10/29 11:16:25;;;;;;;3.93;1.30;;;20.00;85.50;;;;;;4993220;28;20088;-75
2023/10/29 11:18:50;;;;;;;5.93;1.60;;;20.10;83.00;;;;;;4996419;28;20799;-76
2023/10/29 11:21:33;;;;;;;5.30;1.38;;;20.00;87.90;;;;;;4993980;28;20043;-75
2023/10/29 11:24:22;;;;;;;6.75;1.25;;;19.90;89.50;;;;;;4997235;28;20029;-75
2023/10/29 11:26:47;;;;;;;6.82;1.67;;;20.00;86.00;;;;;;5002531;28;20040;-74
2023/10/29 11:29:42;;;;;;;5.23;1.10;;;20.10;83.50;;;;;;4998790;28;20029;-76
2023/10/29 11:32:27;;;;;;;6.35;1.20;;;20.10;82.80;;;;;;4996177;28;20034;-73
2023/10/29 11:35:14;;;;;;;5.15;1.33;;;20.00;84.50;;;;;;4991268;28;20109;-71
2023/10/29 11:37:40;;;;;;;4.20;1.75;;;20.00;84.50;;;;;;4998335;28;20021;-72
2023/10/29 11:40:31;;;;;;;2.95;1.00;;;20.00;85.40;;;;;;4997383;28;20043;-72
2023/10/29 11:43:14;;;;;;;5.10;1.30;;;20.00;83.60;;;;;;5000170;28;20493;-75
2023/10/29 11:45:40;;;;;;;7.18;2.22;;;20.00;85.00;;;;;;5000191;28;20030;-74
2023/10/29 11:48:11;;;;;;;6.57;1.17;;;19.90;88.10;;;;;;4996666;28;20036;-72
2023/10/29 11:50:39;;;;;;;5.50;1.50;;;19.90;84.30;;;;;;4995658;28;20077;-71
2023/10/29 11:53:05;;;;;;;9.75;1.60;;;20.10;83.40;;;;;;4997945;28;20030;-71
2023/10/29 11:55:42;;;;;;;8.55;1.73;;;19.90;87.50;;;;;;4995711;28;20025;-71
2023/10/29 11:58:07;;;;;;;;;;;20.00;86.50;;;;;;4994864;28;20034;-71
2023/10/29 12:00:42;;;;;;;3.95;0.95;;;20.00;86.80;;;;;;4996944;28;20286;-72
2023/10/29 12:03:14;;;;;;;5.25;1.95;;;20.00;88.30;;;;;;4997242;28;20084;-77
2023/10/29 12:05:50;;;;;;;3.78;1.25;;;19.90;87.90;;;;;;4999230;28;20027;-77
2023/10/29 12:08:16;;;;;;;8.68;1.35;;;20.00;88.50;;;;;;4995324;28;20620;-75
2023/10/29 12:10:52;;;;;;;5.65;1.65;;;20.00;86.50;;;;;;4996673;28;20038;-73
2023/10/29 12:13:18;;;;;;;6.10;1.33;;;20.00;86.90;;;;;;4996898;28;20026;-76
2023/10/29 12:15:54;;;;;;;6.63;1.58;;;20.00;88.50;;;;;;5000153;28;20132;-79
2023/10/29 12:18:23;;;;;;;4.38;1.13;;;20.00;84.80;;;;;;4998783;28;20379;-76
2023/10/29 12:20:49;;;;;;;4.05;1.08;;;20.10;85.20;;;;;;4998216;28;20053;-77
2023/10/29 12:23:16;;;;;;;4.13;1.10;;;20.10;82.90;;;;;;5000181;28;20022;-75
2023/10/29 12:25:45;;;;;;;9.65;1.20;;;20.00;85.80;;;;;;4997845;28;20789;-75
2023/10/29 12:28:13;;;;;;;3.85;1.27;;;20.00;84.90;;;;;;5000943;28;20606;-72
2023/10/29 12:30:42;;;;;;;8.55;1.67;;;20.20;85.10;;;;;;4997527;28;20033;-72
2023/10/29 12:33:25;;;;;;;4.25;1.42;;;20.10;84.40;;;;;;4997471;28;20129;-73
2023/10/29 12:35:53;;;;;;;5.53;1.35;;;20.10;86.10;;;;;;4997685;28;20026;-75
2023/10/29 12:38:21;;;;;;;6.18;1.45;;;20.00;86.30;;;;;;5004969;28;20026;-75
2023/10/29 12:41:08;;;;;;;5.85;1.70;;;20.00;87.70;;;;;;4999259;28;20048;-74
2023/10/29 12:43:35;;;;;;;;;;;20.00;85.20;;;;;;5004601;28;20029;-76
2023/10/29 12:46:02;;;;;;;5.97;1.30;;;20.00;87.70;;;;;;5004385;28;19917;-73
2023/10/29 12:48:28;;;;;;;6.53;1.30;;;20.00;86.40;;;;;;5003185;28;20039;-73